Carlsbad, CA

5:23 PM PDT on July 30, 2016 (GMT -0700)
McClellan-Palomar | | Change Station

Elev 328 ft 33.13 °N, 117.28 °W | Updated 30 minutes ago

Clear
Clear
76 °F
Feels Like 76 °F
N
9
Wind Variable Wind from WSW

Today
High -- | Low -- °F
--% Chance of Precip.
Yesterday
High -- | Low -- °F
Precip. -- in
Pressure 29.82 in
Visibility 10.0 miles
Clouds Clear
Dew Point 66 °F
Humidity 71%
Rainfall 0.00 in
Snow Depth Not available.
6:01 AM 7:49 PM
Waning Crescent, 10% visible
METAR KCRQ 302353Z AUTO 24008KT 10SM CLR 24/19 A2983 RMK AO2 SLP096 T02440189 10256 20239 58012
Pressure 29.82 in
Visibility 10.0 miles
Clouds Clear
Dew Point 66 °F
Humidity 71%
Rainfall 0.00 in
Snow Depth Not available.
6:01 AM 7:49 PM
Waning Crescent, 10% visible
METAR KCRQ 302353Z AUTO 24008KT 10SM CLR 24/19 A2983 RMK AO2 SLP096 T02440189 10256 20239 58012

10-Day Weather Forecast

Almanac

Astronomy

Jul. 30, 2016 Rise Set
Actual Time
Civil Twilight
Nautical Twilight
Astronomical Twilight
Moon
Length of Visible Light
Length of Day
Tomorrow will be .
, % of the Moon is Illuminated

Today's Extremes

State Highs State Lows

Community

WunderPhotos

Upload Photos

1,928,682 photos uploaded!

WunderBlog® & News

Nearby

Air Quality

  Air Quality AQ Index Pollutant
Not available.

Snow Depth

Station Depth Elevation

Earthquake Activity

City Distance Mag. Time & Date
Minimum magnitude displayed is 2.5.

Coastal Water Temperatures

Place Temperature

Stations

Nearby Weather Stations

Station Location Temp. Windchill Dew Point Humidity Wind Precip. Elev Updated Type
                   

Watches & Warnings

Beach Hazard Statement
Issued: 1:22 PM PDT Jul. 30, 2016 – National Weather Service

... Beach hazards statement in effect from Sunday morning through
Monday evening...

The National Weather Service in San Diego has issued a beach
hazards statement for elevated surf... strong rip currents... and
minor coastal flooding... which is in effect from Sunday morning
through Monday evening.

* Waves and surf... 2 to 4 feet early Sunday... increasing to 3 to 5
feet by Sunday evening. Highest surf along south and southwest
facing beaches.

* Highest tides... Sunday 7.0 ft at 8:12 PM PDT. Monday 7.0 ft at
8:55 PM PDT.

* Timing... Sunday morning through Monday evening.

* Impacts... strong rip and longshore currents will create
hazardous swimming conditions. Rip currents may pull swimmers
out to sea.

Precautionary/preparedness actions...

A beach hazards statement is issued when threats such as strong
rip currents... elevated surf heights... minor tidal overflow... or
lightning are possible at local beaches. Obey posted warning
signs and flags and talk to a lifeguard before swimming. Use
caution when in or near the water and always swim near a
lifeguard.